CheckWX is a tool to help pilots better visualize weather data.  It is not intended as a substitute for an official pre-flight weather briefing.

01:36:36 UTC

KGNV METAR
Gainesville Regional Airport
Gainesville, Florida, USA
Current

44 mins ago

KGNV 150053Z 09004KT 10SM CLR 25/19 A3009 RMK AO2 SLP186 T02500194
Observed
Oct-15 @ 00:53 UTC
Wind
  • 090° at 4 KTS
Visibility
10 SM
Flight Rules
VFR
Cloud Levels
  • Clear skies
Temperature
25°C / 77°F
Dewpoint
19°C / 66°F
Humidity
69%
Altimeter
30.09" Hg
Pressure
1018.92 hPa
Previous

2 hours ago

KGNV 142353Z 08003KT 10SM BKN050 26/21 A3006 RMK AO2 SLP176 T02610206 10311 20256 53006
Observed
Oct-14 @ 23:53 UTC
Wind
  • 080° at 3 KTS
Visibility
10 SM
Flight Rules
VFR
Cloud Levels
  • Broken at 5,000' AGL
Temperature
26°C / 79°F
Dewpoint
21°C / 70°F
Humidity
74%
Altimeter
30.06" Hg
Pressure
1017.92 hPa
Previous

3 hours ago

KGNV 142253Z 15003KT 10SM FEW049 27/20 A3004 RMK AO2 SLP171 T02720200
Observed
Oct-14 @ 22:53 UTC
Wind
  • 150° at 3 KTS
Visibility
10 SM
Flight Rules
VFR
Cloud Levels
  • Few at 4,900' AGL
Temperature
27°C / 81°F
Dewpoint
20°C / 68°F
Heat Index
29°C / 84°F
Humidity
66%
Altimeter
30.04" Hg
Pressure
1017.32 hPa